createdAt,value
2018-04-08T00:01:01.040Z,40.87
2018-04-08T00:03:30.317Z,39.40
2018-04-08T00:06:00.943Z,29.43
2018-04-08T00:08:30.072Z,46.20
2018-04-08T00:10:59.503Z,26.83
2018-04-08T00:13:28.909Z,38.97
2018-04-08T00:15:58.206Z,39.77
2018-04-08T00:18:27.456Z,53.90
2018-04-08T00:20:57.671Z,41.70
2018-04-08T00:23:27.678Z,50.07
2018-04-08T00:25:57.096Z,40.57
2018-04-08T00:28:27.012Z,48.80
2018-04-08T00:30:57.240Z,38.13
2018-04-08T00:33:27.227Z,42.60
2018-04-08T00:35:56.413Z,48.17
2018-04-08T00:38:25.686Z,49.17
2018-04-08T00:40:54.964Z,47.07
2018-04-08T00:43:24.975Z,52.83
2018-04-08T00:45:54.763Z,38.20
2018-04-08T00:48:23.827Z,51.40
2018-04-08T00:50:53.198Z,43.47
2018-04-08T00:53:22.587Z,46.20
2018-04-08T00:55:52.565Z,35.20
2018-04-08T00:58:21.433Z,50.37
2018-04-08T01:00:50.334Z,50.80
2018-04-08T01:03:19.115Z,41.67
2018-04-08T01:05:48.111Z,39.50
2018-04-08T01:08:17.105Z,53.53
2018-04-08T01:10:45.966Z,45.17
2018-04-08T01:13:15.093Z,51.83
2018-04-08T01:15:43.876Z,45.93
2018-04-08T01:18:13.054Z,41.53
2018-04-08T01:20:43.267Z,42.63
2018-04-08T01:23:14.455Z,50.07
2018-04-08T01:25:44.594Z,54.47
2018-04-08T01:28:13.880Z,42.83
2018-04-08T01:30:43.075Z,37.63
2018-04-08T01:33:12.171Z,51.87
2018-04-08T01:35:43.748Z,47.43
2018-04-08T01:38:12.896Z,40.27
2018-04-08T01:40:42.017Z,39.63
2018-04-08T01:43:11.224Z,47.67
2018-04-08T01:45:40.387Z,50.50
2018-04-08T01:48:10.511Z,48.53
2018-04-08T01:50:40.656Z,42.13
2018-04-08T01:53:10.489Z,40.40
2018-04-08T01:55:40.469Z,41.43
2018-04-08T01:58:09.556Z,40.60
2018-04-08T02:00:39.807Z,44.97
2018-04-08T02:03:08.909Z,48.20
2018-04-08T02:05:38.215Z,57.27
2018-04-08T02:08:07.372Z,45.67
2018-04-08T02:10:37.499Z,51.37
2018-04-08T02:13:07.680Z,42.50
2018-04-08T02:15:37.370Z,45.70
2018-04-08T02:18:06.468Z,53.33
2018-04-08T02:20:36.696Z,48.13
2018-04-08T02:23:06.654Z,50.00
2018-04-08T02:25:36.091Z,49.10
2018-04-08T02:28:05.199Z,62.43
2018-04-08T02:30:34.378Z,51.17
2018-04-08T02:33:03.571Z,50.90
2018-04-08T02:35:32.916Z,55.87
2018-04-08T02:38:01.951Z,59.17
2018-04-08T02:40:31.311Z,58.90
2018-04-08T02:43:00.329Z,53.00
2018-04-08T02:45:29.476Z,55.47
2018-04-08T02:47:58.253Z,50.60
2018-04-08T02:50:28.376Z,48.67
2018-04-08T02:52:57.675Z,53.63
2018-04-08T02:55:27.901Z,49.70
2018-04-08T02:57:57.205Z,56.67
2018-04-08T03:00:26.512Z,41.10
2018-04-08T03:02:55.575Z,65.63
2018-04-08T03:05:24.637Z,54.57
2018-04-08T03:07:54.750Z,45.40
2018-04-08T03:10:25.073Z,45.83
2018-04-08T03:12:54.248Z,61.40
2018-04-08T03:15:23.688Z,48.90
2018-04-08T03:17:52.978Z,56.03
2018-04-08T03:20:22.051Z,58.80
2018-04-08T03:22:51.548Z,56.43
2018-04-08T03:25:21.484Z,43.87
2018-04-08T03:27:50.429Z,43.40
2018-04-08T03:30:19.675Z,51.73
2018-04-08T03:32:49.475Z,45.10
2018-04-08T03:35:19.817Z,45.70
2018-04-08T03:37:48.999Z,48.60
2018-04-08T03:40:18.927Z,72.37
2018-04-08T03:42:48.212Z,44.67
2018-04-08T03:45:17.758Z,41.90
2018-04-08T03:47:46.851Z,50.80
2018-04-08T03:50:15.950Z,52.20
2018-04-08T03:52:45.932Z,43.33
2018-04-08T03:55:15.449Z,61.20
2018-04-08T03:57:44.476Z,63.73
2018-04-08T04:00:14.894Z,81.87
2018-04-08T04:02:44.150Z,58.13
2018-04-08T04:05:13.524Z,66.77
2018-04-08T04:07:42.829Z,69.20
2018-04-08T04:10:12.126Z,53.83
2018-04-08T04:12:41.759Z,64.97
2018-04-08T04:15:11.145Z,58.80
2018-04-08T04:17:40.369Z,60.90
2018-04-08T04:20:22.266Z,57.93
2018-04-08T04:23:03.344Z,56.67
2018-04-08T04:25:59.072Z,66.50
2018-04-08T04:28:28.137Z,72.23
2018-04-08T04:30:57.942Z,77.33
2018-04-08T04:33:27.221Z,86.93
2018-04-08T04:35:56.329Z,76.80
2018-04-08T04:38:26.341Z,75.90
2018-04-08T04:40:56.284Z,89.50
2018-04-08T04:43:25.729Z,88.53
2018-04-08T04:45:55.708Z,102.83
2018-04-08T04:48:24.800Z,102.00
2018-04-08T04:50:54.208Z,97.50
2018-04-08T04:53:23.481Z,72.67
2018-04-08T04:55:53.001Z,60.43
2018-04-08T04:58:21.988Z,41.27
2018-04-08T05:00:52.280Z,35.93
2018-04-08T05:03:21.677Z,33.70
2018-04-08T05:05:51.908Z,35.73
2018-04-08T05:08:21.248Z,26.53
2018-04-08T05:10:50.472Z,32.70
2018-04-08T05:13:19.792Z,22.40
2018-04-08T05:15:49.787Z,25.30
2018-04-08T05:18:18.920Z,23.77
2018-04-08T05:20:49.228Z,25.33
2018-04-08T05:23:18.284Z,20.93
2018-04-08T05:25:48.467Z,22.10
2018-04-08T05:28:17.568Z,16.73
2018-04-08T05:30:46.878Z,20.93
2018-04-08T05:33:16.811Z,25.37
2018-04-08T05:35:47.065Z,19.60
2018-04-08T05:38:16.100Z,25.67
2018-04-08T05:40:45.645Z,17.20
2018-04-08T05:43:14.844Z,17.60
2018-04-08T05:45:45.034Z,19.43
2018-04-08T05:48:15.108Z,13.47
2018-04-08T05:50:44.406Z,12.50
2018-04-08T05:53:13.656Z,14.97
2018-04-08T05:55:42.956Z,14.90
2018-04-08T05:58:13.034Z,17.13
2018-04-08T06:00:42.380Z,13.03
2018-04-08T06:03:11.618Z,12.90
2018-04-08T06:05:40.950Z,9.03
2018-04-08T06:08:11.000Z,14.80
2018-04-08T06:10:41.075Z,14.17
2018-04-08T06:13:10.235Z,15.10
2018-04-08T06:15:39.724Z,13.67
2018-04-08T06:18:09.700Z,9.63
2018-04-08T06:20:39.290Z,11.27
2018-04-08T06:23:08.630Z,25.83
2018-04-08T06:25:38.370Z,17.10
2018-04-08T06:28:07.668Z,18.20
2018-04-08T06:30:38.024Z,14.57
2018-04-08T06:33:07.900Z,17.60
2018-04-08T06:35:37.786Z,12.23
2018-04-08T06:38:07.942Z,14.73
2018-04-08T06:40:37.592Z,12.83
2018-04-08T06:43:06.792Z,10.70
2018-04-08T06:45:35.930Z,9.00
2018-04-08T06:48:05.268Z,12.07
2018-04-08T06:50:34.758Z,11.50
2018-04-08T06:53:03.888Z,8.37
2018-04-08T06:55:33.291Z,13.43
2018-04-08T06:58:02.292Z,14.20
2018-04-08T07:00:32.383Z,15.57
2018-04-08T07:03:01.614Z,16.53
2018-04-08T07:05:31.151Z,15.50
2018-04-08T07:08:00.063Z,12.33
2018-04-08T07:10:29.308Z,13.40
2018-04-08T07:12:58.560Z,19.33
2018-04-08T07:15:28.035Z,12.90
2018-04-08T07:17:57.427Z,19.73
2018-04-08T07:20:26.652Z,12.67
2018-04-08T07:22:55.737Z,8.77
2018-04-08T07:25:25.195Z,8.43
2018-04-08T07:27:55.032Z,12.57
2018-04-08T07:30:24.273Z,16.10
2018-04-08T07:32:53.353Z,9.53
2018-04-08T07:35:22.265Z,17.43
2018-04-08T07:37:51.421Z,14.13
2018-04-08T07:40:20.556Z,18.03
2018-04-08T07:42:49.848Z,16.70
2018-04-08T07:45:19.215Z,15.30
2018-04-08T07:47:48.294Z,16.57
2018-04-08T07:50:17.762Z,14.57
2018-04-08T07:52:46.922Z,14.00
2018-04-08T07:55:15.992Z,14.33
2018-04-08T07:57:45.348Z,14.33
2018-04-08T08:00:14.692Z,11.00
2018-04-08T08:02:43.816Z,14.60
2018-04-08T08:05:13.265Z,15.50
2018-04-08T08:07:42.232Z,10.93
2018-04-08T08:10:13.136Z,9.97
2018-04-08T08:12:43.093Z,11.00
2018-04-08T08:15:12.352Z,13.17
2018-04-08T08:17:41.490Z,13.03
2018-04-08T08:20:10.700Z,10.03
2018-04-08T08:22:39.908Z,16.30
2018-04-08T08:25:09.468Z,14.77
2018-04-08T08:27:38.860Z,17.83
2018-04-08T08:30:09.094Z,13.00
2018-04-08T08:32:38.987Z,10.63
2018-04-08T08:35:09.116Z,15.40
2018-04-08T08:37:39.166Z,11.70
2018-04-08T08:40:08.674Z,12.80
2018-04-08T08:42:38.687Z,14.70
2018-04-08T08:45:08.453Z,16.23
2018-04-08T08:47:37.463Z,16.20
2018-04-08T08:50:07.517Z,12.43
2018-04-08T08:52:36.583Z,15.73
2018-04-08T08:55:05.852Z,12.20
2018-04-08T08:57:34.872Z,8.00
2018-04-08T09:00:04.055Z,12.77
2018-04-08T09:02:33.232Z,13.87
2018-04-08T09:05:02.211Z,14.50
2018-04-08T09:07:31.322Z,14.57
2018-04-08T09:10:00.364Z,13.53
2018-04-08T09:12:29.750Z,18.37
2018-04-08T09:14:59.199Z,14.23
2018-04-08T09:17:28.487Z,9.40
2018-04-08T09:19:59.610Z,12.43
2018-04-08T09:22:34.872Z,14.53
2018-04-08T09:25:14.179Z,17.90
2018-04-08T09:27:43.561Z,10.33
2018-04-08T09:30:12.961Z,17.47
2018-04-08T09:32:42.223Z,20.10
2018-04-08T09:35:12.328Z,17.00
2018-04-08T09:37:41.846Z,15.83
2018-04-08T09:40:11.592Z,17.40
2018-04-08T09:42:40.739Z,14.07
2018-04-08T09:45:09.986Z,14.90
2018-04-08T09:47:39.890Z,14.60
2018-04-08T09:50:09.165Z,16.50
2018-04-08T09:52:39.190Z,15.00
2018-04-08T09:55:08.626Z,9.80
2018-04-08T09:57:59.369Z,15.77
2018-04-08T10:00:34.135Z,14.00
2018-04-08T10:03:08.028Z,21.17
2018-04-08T10:05:37.466Z,17.03
2018-04-08T10:08:06.692Z,21.33
2018-04-08T10:10:36.089Z,25.83
2018-04-08T10:13:05.471Z,23.87
2018-04-08T10:15:34.819Z,20.03
2018-04-08T10:18:04.085Z,20.87
2018-04-08T10:20:34.164Z,14.03
2018-04-08T10:23:03.357Z,18.30
2018-04-08T10:25:33.304Z,17.50
2018-04-08T10:28:02.611Z,31.70
2018-04-08T10:30:32.800Z,19.23
2018-04-08T10:33:03.008Z,18.67
2018-04-08T10:35:32.881Z,24.00
2018-04-08T10:38:02.884Z,20.27
2018-04-08T10:40:32.779Z,28.40
2018-04-08T10:43:02.716Z,15.93
2018-04-08T10:45:31.924Z,15.37
2018-04-08T10:48:02.262Z,19.83
2018-04-08T10:50:31.664Z,23.80
2018-04-08T10:53:00.516Z,22.30
2018-04-08T10:55:29.751Z,27.07
2018-04-08T10:57:58.906Z,23.73
2018-04-08T11:00:28.936Z,23.70
2018-04-08T11:02:59.107Z,26.80
2018-04-08T11:05:28.245Z,29.87
2018-04-08T11:07:57.447Z,30.80
2018-04-08T11:10:27.686Z,245.10
2018-04-08T11:12:56.926Z,31.17
2018-04-08T11:15:26.040Z,34.07
2018-04-08T11:17:55.273Z,19.80
2018-04-08T11:20:25.493Z,33.60
2018-04-08T11:22:54.616Z,18.67
2018-04-08T11:25:24.585Z,21.07
2018-04-08T11:27:53.865Z,26.63
2018-04-08T11:30:23.415Z,21.87
2018-04-08T11:32:53.492Z,27.40
2018-04-08T11:35:22.484Z,23.37
2018-04-08T11:37:51.683Z,28.87
2018-04-08T11:40:21.134Z,25.30
2018-04-08T11:42:51.147Z,22.90
2018-04-08T11:45:21.187Z,32.63
2018-04-08T11:47:50.060Z,20.40
2018-04-08T11:50:19.448Z,33.57
2018-04-08T11:52:48.724Z,27.97
2018-04-08T11:55:18.211Z,36.80
2018-04-08T11:57:47.380Z,31.50
2018-04-08T12:00:17.421Z,31.67
2018-04-08T12:02:46.726Z,38.10
2018-04-08T12:05:16.913Z,27.37
2018-04-08T12:07:46.784Z,40.93
2018-04-08T12:10:16.291Z,39.27
2018-04-08T12:12:45.595Z,28.23
2018-04-08T12:15:14.971Z,37.00
2018-04-08T12:17:43.918Z,36.20
2018-04-08T12:20:14.110Z,34.23
2018-04-08T12:22:43.634Z,45.37
2018-04-08T12:25:13.119Z,45.63
2018-04-08T12:27:42.548Z,48.07
2018-04-08T12:30:12.089Z,37.03
2018-04-08T12:32:41.642Z,35.57
2018-04-08T12:35:10.934Z,35.00
2018-04-08T12:37:40.224Z,29.13
2018-04-08T12:40:09.804Z,25.30
2018-04-08T12:42:39.720Z,21.67
2018-04-08T12:45:09.611Z,23.03
2018-04-08T12:47:38.826Z,25.97
2018-04-08T12:50:08.491Z,30.87
2018-04-08T12:52:37.772Z,25.23
2018-04-08T12:55:07.053Z,25.30
2018-04-08T12:57:37.168Z,23.27
2018-04-08T13:00:07.095Z,20.80
2018-04-08T13:02:37.095Z,30.63
2018-04-08T13:05:07.360Z,27.60
2018-04-08T13:07:36.663Z,15.87
2018-04-08T13:10:06.777Z,21.03
2018-04-08T13:12:36.880Z,24.00
2018-04-08T13:15:06.386Z,27.10
2018-04-08T13:17:35.810Z,25.90
2018-04-08T13:20:05.505Z,26.60
2018-04-08T13:22:35.417Z,26.23
2018-04-08T13:25:04.783Z,26.77
2018-04-08T13:27:33.900Z,19.93
2018-04-08T13:30:03.064Z,33.03
2018-04-08T13:32:32.097Z,27.13
2018-04-08T13:35:01.531Z,32.00
2018-04-08T13:37:30.921Z,30.00
2018-04-08T13:40:00.955Z,31.27
2018-04-08T13:42:30.288Z,26.23
2018-04-08T13:44:59.659Z,19.13
2018-04-08T13:47:28.836Z,30.47
2018-04-08T13:49:58.136Z,29.17
2018-04-08T13:52:27.272Z,34.37
2018-04-08T13:54:56.595Z,33.63
2018-04-08T13:57:26.005Z,29.17
2018-04-08T13:59:55.451Z,29.10
2018-04-08T14:02:25.521Z,33.73
2018-04-08T14:04:54.973Z,25.57
2018-04-08T14:07:25.044Z,29.10
2018-04-08T14:09:54.318Z,29.27
2018-04-08T14:12:24.105Z,31.50
2018-04-08T14:14:53.370Z,22.50
2018-04-08T14:17:22.398Z,34.00
2018-04-08T14:19:51.672Z,26.63
2018-04-08T14:22:21.061Z,33.77
2018-04-08T14:24:50.336Z,37.20
2018-04-08T14:27:20.479Z,34.33
2018-04-08T14:29:49.878Z,44.23
2018-04-08T14:32:19.182Z,43.87
2018-04-08T14:34:48.376Z,35.40
2018-04-08T14:37:19.316Z,35.67
2018-04-08T14:39:48.436Z,33.07
2018-04-08T14:42:17.561Z,38.17
2018-04-08T14:44:47.792Z,34.17
2018-04-08T14:47:17.832Z,54.17
2018-04-08T14:49:47.138Z,37.83
2018-04-08T14:52:16.406Z,36.83
2018-04-08T14:54:45.672Z,37.13
2018-04-08T14:57:14.841Z,40.00
2018-04-08T14:59:44.487Z,40.60
2018-04-08T15:02:13.750Z,40.07
2018-04-08T15:04:43.128Z,39.10
2018-04-08T15:07:13.273Z,44.83
2018-04-08T15:09:42.484Z,39.00
2018-04-08T15:12:12.524Z,50.00
2018-04-08T15:14:41.792Z,42.70
2018-04-08T15:17:10.968Z,39.23
2018-04-08T15:19:41.180Z,40.03
2018-04-08T15:22:11.052Z,47.30
2018-04-08T15:24:40.168Z,47.00
2018-04-08T15:27:09.559Z,45.10
2018-04-08T15:29:38.902Z,46.53
2018-04-08T15:32:08.575Z,53.93
2018-04-08T15:34:38.138Z,44.53
2018-04-08T15:37:07.528Z,67.67
2018-04-08T15:39:37.576Z,47.27
2018-04-08T15:42:06.975Z,50.47
2018-04-08T15:44:37.376Z,54.97
2018-04-08T15:47:07.089Z,55.77
2018-04-08T15:49:37.349Z,42.27
2018-04-08T15:52:06.586Z,43.90
2018-04-08T15:54:35.713Z,50.20
2018-04-08T15:57:05.837Z,51.77
2018-04-08T15:59:36.052Z,44.00
2018-04-08T16:02:05.364Z,39.27
2018-04-08T16:04:35.580Z,47.10
2018-04-08T16:07:06.152Z,58.73
2018-04-08T16:09:36.144Z,48.17
2018-04-08T16:12:05.532Z,54.07
2018-04-08T16:14:35.457Z,49.87
2018-04-08T16:17:05.372Z,50.90
2018-04-08T16:19:35.707Z,48.83
2018-04-08T16:22:05.500Z,43.33
2018-04-08T16:24:35.728Z,40.23
2018-04-08T16:27:05.644Z,66.47
2018-04-08T16:29:35.658Z,48.80
2018-04-08T16:32:05.720Z,62.70
2018-04-08T16:34:35.244Z,65.93
2018-04-08T16:37:04.174Z,46.07
2018-04-08T16:39:33.344Z,53.53
2018-04-08T16:42:02.673Z,54.53
2018-04-08T16:44:32.011Z,54.40
2018-04-08T16:47:01.293Z,41.80
2018-04-08T16:49:31.521Z,65.63
2018-04-08T16:52:00.632Z,60.70
2018-04-08T16:54:30.927Z,59.13
2018-04-08T16:57:00.681Z,67.10
2018-04-08T16:59:31.072Z,56.77
2018-04-08T17:02:01.406Z,58.27
2018-04-08T17:04:32.329Z,63.90
2018-04-08T17:07:02.995Z,52.40
2018-04-08T17:09:32.975Z,67.40
2018-04-08T17:12:03.450Z,52.27
2018-04-08T17:14:32.970Z,64.27
2018-04-08T17:17:06.432Z,58.67
2018-04-08T17:19:40.668Z,54.30
2018-04-08T17:22:10.043Z,57.53
2018-04-08T17:24:40.602Z,58.03
2018-04-08T17:27:10.492Z,55.20
2018-04-08T17:29:39.712Z,77.13
2018-04-08T17:32:09.138Z,74.37
2018-04-08T17:34:39.424Z,71.10
2018-04-08T17:37:09.492Z,52.23
2018-04-08T17:39:39.180Z,49.33
2018-04-08T17:42:09.875Z,49.67
2018-04-08T17:44:40.007Z,61.77
2018-04-08T17:47:10.328Z,57.53
2018-04-08T17:49:40.050Z,57.33
2018-04-08T17:52:09.712Z,58.10
2018-04-08T17:54:40.084Z,59.40
2018-04-08T17:57:09.685Z,55.60
2018-04-08T17:59:39.816Z,71.03
2018-04-08T18:02:09.824Z,69.77
2018-04-08T18:04:39.748Z,84.60
2018-04-08T18:07:09.592Z,60.90
2018-04-08T18:09:38.869Z,49.37
2018-04-08T18:12:08.883Z,56.60
2018-04-08T18:14:38.339Z,52.23
2018-04-08T18:17:07.625Z,51.10
2018-04-08T18:19:37.200Z,51.27
2018-04-08T18:22:07.056Z,64.40
2018-04-08T18:24:36.212Z,65.50
2018-04-08T18:27:05.360Z,60.97
2018-04-08T18:29:34.467Z,67.67
2018-04-08T18:32:03.536Z,58.53
2018-04-08T18:34:32.800Z,60.37
2018-04-08T18:37:02.175Z,55.27
2018-04-08T18:39:31.615Z,63.53
2018-04-08T18:42:01.336Z,58.87
2018-04-08T18:44:30.780Z,67.20
2018-04-08T18:46:59.952Z,57.37
2018-04-08T18:49:29.432Z,48.40
2018-04-08T18:51:59.444Z,52.27
2018-04-08T18:54:29.483Z,57.20
2018-04-08T18:56:58.474Z,74.57
2018-04-08T18:59:28.618Z,62.17
2018-04-08T19:01:58.633Z,47.47
2018-04-08T19:04:28.380Z,63.17
2018-04-08T19:06:57.459Z,48.83
2018-04-08T19:09:26.571Z,74.60
2018-04-08T19:11:55.725Z,57.83
2018-04-08T19:14:24.916Z,52.70
2018-04-08T19:16:54.174Z,54.80
2018-04-08T19:19:23.616Z,52.13
2018-04-08T19:21:53.412Z,50.07
2018-04-08T19:24:23.443Z,63.27
2018-04-08T19:26:53.429Z,51.40
2018-04-08T19:29:22.709Z,55.13
2018-04-08T19:31:51.760Z,54.37
2018-04-08T19:34:21.994Z,49.83
2018-04-08T19:36:51.293Z,45.17
2018-04-08T19:39:24.033Z,50.30
2018-04-08T19:41:56.950Z,48.53
2018-04-08T19:44:28.999Z,61.60
2018-04-08T19:47:05.689Z,55.07
2018-04-08T19:49:40.043Z,60.27
2018-04-08T19:52:09.365Z,62.77
2018-04-08T19:54:38.784Z,46.70
2018-04-08T19:57:08.604Z,53.87
2018-04-08T19:59:38.341Z,66.47
2018-04-08T20:02:07.505Z,60.97
2018-04-08T20:04:36.591Z,51.67
2018-04-08T20:07:05.900Z,57.20
2018-04-08T20:09:35.096Z,54.00
2018-04-08T20:12:04.267Z,46.00
2018-04-08T20:14:34.569Z,50.23
2018-04-08T20:17:03.787Z,59.87
2018-04-08T20:19:33.314Z,57.37
2018-04-08T20:22:02.346Z,81.73
2018-04-08T20:24:31.573Z,54.37
2018-04-08T20:27:01.627Z,55.83
2018-04-08T20:29:31.032Z,48.00
2018-04-08T20:32:00.016Z,46.83
2018-04-08T20:34:30.108Z,50.93
2018-04-08T20:36:59.403Z,61.23
2018-04-08T20:39:28.681Z,44.37
2018-04-08T20:41:58.284Z,57.07
2018-04-08T20:44:27.837Z,52.97
2018-04-08T20:46:56.965Z,50.13
2018-04-08T20:49:26.292Z,49.33
2018-04-08T20:51:55.457Z,45.97
2018-04-08T20:54:24.725Z,55.20
2018-04-08T20:56:53.984Z,54.03
2018-04-08T20:59:23.437Z,50.50
2018-04-08T21:01:53.509Z,51.90
2018-04-08T21:04:22.777Z,52.93
2018-04-08T21:06:51.947Z,59.03
2018-04-08T21:09:21.357Z,48.53
2018-04-08T21:11:51.284Z,66.03
2018-04-08T21:14:20.468Z,53.53
2018-04-08T21:16:49.598Z,60.53
2018-04-08T21:19:18.942Z,59.17
2018-04-08T21:21:47.900Z,60.00
2018-04-08T21:24:18.122Z,60.07
2018-04-08T21:26:48.408Z,63.20
2018-04-08T21:29:18.138Z,54.67
2018-04-08T21:31:47.047Z,58.27
2018-04-08T21:34:17.215Z,60.73
2018-04-08T21:36:46.576Z,58.73
2018-04-08T21:39:15.666Z,51.47
2018-04-08T21:41:44.702Z,50.47
2018-04-08T21:44:14.252Z,55.43
2018-04-08T21:46:44.209Z,50.77
2018-04-08T21:49:13.197Z,62.90
2018-04-08T21:51:43.093Z,53.70
2018-04-08T21:54:12.710Z,50.47
2018-04-08T21:56:41.807Z,52.93
2018-04-08T21:59:11.996Z,51.13
2018-04-08T22:01:42.110Z,54.00
2018-04-08T22:04:11.528Z,58.23
2018-04-08T22:06:40.620Z,53.70
2018-04-08T22:09:10.735Z,55.17
2018-04-08T22:11:39.967Z,57.73
2018-04-08T22:14:09.235Z,52.87
2018-04-08T22:16:38.145Z,42.13
2018-04-08T22:19:07.374Z,48.50
2018-04-08T22:21:36.497Z,53.60
2018-04-08T22:24:05.702Z,61.83
2018-04-08T22:26:34.723Z,50.70
2018-04-08T22:29:03.923Z,56.53
2018-04-08T22:31:33.878Z,45.10
2018-04-08T22:34:04.078Z,50.40
2018-04-08T22:36:33.259Z,43.93
2018-04-08T22:39:02.704Z,45.73
2018-04-08T22:41:31.907Z,51.77
2018-04-08T22:44:01.114Z,49.90
2018-04-08T22:46:30.704Z,47.93
2018-04-08T22:49:00.076Z,46.70
2018-04-08T22:51:30.091Z,45.03
2018-04-08T22:54:00.071Z,43.63
2018-04-08T22:56:29.407Z,53.33
2018-04-08T22:58:58.820Z,56.43
2018-04-08T23:01:28.629Z,41.53
2018-04-08T23:03:58.760Z,51.70
2018-04-08T23:06:28.776Z,36.80
2018-04-08T23:08:58.661Z,39.93
2018-04-08T23:11:27.866Z,59.93
2018-04-08T23:13:57.365Z,54.77
2018-04-08T23:16:26.520Z,57.00
2018-04-08T23:18:55.797Z,47.83
2018-04-08T23:21:24.991Z,49.40
2018-04-08T23:23:54.368Z,61.00
2018-04-08T23:26:23.219Z,48.70
2018-04-08T23:28:52.538Z,49.63
2018-04-08T23:31:21.962Z,49.50
2018-04-08T23:33:51.429Z,57.43
2018-04-08T23:36:20.637Z,60.77
2018-04-08T23:38:49.811Z,61.83
2018-04-08T23:41:18.825Z,52.63
2018-04-08T23:43:47.942Z,49.07
2018-04-08T23:46:16.982Z,46.47
2018-04-08T23:48:47.217Z,46.50
2018-04-08T23:51:16.349Z,55.67
2018-04-08T23:53:45.623Z,54.03
2018-04-08T23:56:14.894Z,64.60
2018-04-08T23:58:44.212Z,50.03
